Terminal Aerodrome Forecast
Issued by NWS

Home | Current Version | Previous Version | Text Only | Print | Product List | Glossary On
Versions: 1 2 3 4 5 6 7 8 9 10 11 12 13 14 15 16 17 18
000
FTUS44 KEWX 270533
TAFSSF
TAF
KSSF 270533Z 2706/2806 13005KT P6SM BKN250
     FM270900 VRB03KT P6SM BKN050
     FM271500 04006KT P6SM SCT050 BKN250
     FM280000 10003KT P6SM SCT050 BKN250=

USA.gov is the U.S. government's official web portal to all federal, state and local government web resources and services.